Map

Track Data

SID SEASON NUMBER BASIN SUBBASIN NAME ISO_TIME NATURE LAT LON WMO_WIND WMO_PRES WMO_AGENCY TRACK_TYPE DIST2LAND LANDFALL IFLAG USA_AGENCY USA_ATCF_ID USA_LAT USA_LON USA_RECORD USA_STATUS USA_WIND USA_PRES USA_SSHS USA_R34_NE USA_R34_SE USA_R34_SW USA_R34_NW USA_R50_NE USA_R50_SE USA_R50_SW USA_R50_NW USA_R64_NE USA_R64_SE USA_R64_SW USA_R64_NW USA_POCI USA_ROCI USA_RMW USA_EYE TOKYO_LAT TOKYO_LON TOKYO_GRADE TOKYO_WIND TOKYO_PRES TOKYO_R50_DIR TOKYO_R50_LONG TOKYO_R50_SHORT TOKYO_R30_DIR TOKYO_R30_LONG TOKYO_R30_SHORT TOKYO_LAND CMA_LAT CMA_LON CMA_CAT CMA_WIND CMA_PRES HKO_LAT HKO_LON HKO_CAT HKO_WIND HKO_PRES NEWDELHI_LAT NEWDELHI_LON NEWDELHI_GRADE NEWDELHI_WIND NEWDELHI_PRES NEWDELHI_CI NEWDELHI_DP NEWDELHI_POCI REUNION_LAT REUNION_LON REUNION_TYPE REUNION_WIND REUNION_PRES REUNION_TNUM REUNION_CI REUNION_RMW REUNION_R34_NE REUNION_R34_SE REUNION_R34_SW REUNION_R34_NW REUNION_R50_NE REUNION_R50_SE REUNION_R50_SW REUNION_R50_NW REUNION_R64_NE REUNION_R64_SE REUNION_R64_SW REUNION_R64_NW BOM_LAT BOM_LON BOM_TYPE BOM_WIND BOM_PRES BOM_TNUM BOM_CI BOM_RMW BOM_R34_NE BOM_R34_SE BOM_R34_SW BOM_R34_NW BOM_R50_NE BOM_R50_SE BOM_R50_SW BOM_R50_NW BOM_R64_NE BOM_R64_SE BOM_R64_SW BOM_R64_NW BOM_ROCI BOM_POCI BOM_EYE BOM_POS_METHOD BOM_PRES_METHOD NADI_LAT NADI_LON NADI_CAT NADI_WIND NADI_PRES WELLINGTON_LAT WELLINGTON_LON WELLINGTON_WIND WELLINGTON_PRES DS824_LAT DS824_LON DS824_STAGE DS824_WIND DS824_PRES TD9636_LAT TD9636_LON TD9636_STAGE TD9636_WIND TD9636_PRES TD9635_LAT TD9635_LON TD9635_WIND TD9635_PRES TD9635_ROCI NEUMANN_LAT NEUMANN_LON NEUMANN_CLASS NEUMANN_WIND NEUMANN_PRES MLC_LAT MLC_LON MLC_CLASS MLC_WIND MLC_PRES USA_GUST BOM_GUST BOM_GUST_PER REUNION_GUST REUNION_GUST_PER USA_SEAHGT USA_SEARAD_NE USA_SEARAD_SE USA_SEARAD_SW USA_SEARAD_NW STORM_SPEED STORM_DIR
2001018S12086 2001 2 SI MM CHARLY 2001-01-17 12:00:00 TS -12.2667 86.3667 20 1001 reunion main 1819 1819 O____O______O_ jtwc_sh SH062001 -12.3000 86.4000 TD 25 -1 -12.2000 86.3000 2 20 1001 1.50000 1.50000 -12.3000 86.4000 TC 25 2 128
2001018S12086 2001 2 SI MM CHARLY 2001-01-17 15:00:00 TS -12.3150 86.4417 main 1819 1811 P____P______P_ SH062001 -12.3525 86.4550 TD 25 -1 -12.2400 86.4150 2 22 1000 -12.3525 86.4550 TC 25 2 128
2001018S12086 2001 2 SI MM CHARLY 2001-01-17 18:00:00 TS -12.3667 86.5000 25 1000 reunion main 1818 1818 O____O______O_ jtwc_sh SH062001 -12.4000 86.5000 TD 25 -1 -12.3000 86.5000 2 25 1000 2.00000 2.00000 -12.4000 86.5000 TC 25 1 144
2001018S12086 2001 2 SI MM CHARLY 2001-01-17 21:00:00 TS -12.4258 86.5250 main 1818 1818 P____P______P_ SH062001 -12.4425 86.5225 TD 25 -1 -12.3925 86.5300 2 25 1000 -12.4425 86.5225 TC 25 1 0
2001018S12086 2001 2 SI MM CHARLY 2001-01-18 00:00:00 TS -12.5000 86.5000 25 1000 reunion main 1825 1825 O____O______O_ jtwc_sh SH062001 -12.5000 86.5000 TD 25 -1 -12.5000 86.5000 2 25 1000 2.00000 2.00000 -12.5000 86.5000 TC 25 2 209
2001018S12086 2001 2 SI MM CHARLY 2001-01-18 03:00:00 TS -12.5850 86.4300 main 1841 1841 P____P______P_ SH062001 -12.5850 86.4225 TD 25 -1 -12.5849 86.4449 2 25 1000 -12.5850 86.4225 TC 25 3 224
2001018S12086 2001 2 SI MM CHARLY 2001-01-18 06:00:00 TS -12.7000 86.3000 25 1000 reunion main 1856 1856 O____O______O_ jtwc_sh SH062001 -12.7000 86.3000 TD 25 -1 -12.7000 86.3000 2 25 1000 2.00000 2.00000 -12.7000 86.3000 TC 25 4 227
2001018S12086 2001 2 SI MM CHARLY 2001-01-18 09:00:00 TS -12.8641 86.1275 main 1887 1887 P____P______P_ SH062001 -12.8425 86.1650 TD 25 -1 -12.9075 86.0526 2 25 999 -12.8425 86.1650 TC 25 5 229
2001018S12086 2001 2 SI MM CHARLY 2001-01-18 12:00:00 TS -13.0333 85.9000 25 999 reunion main 1911 1911 O____O______O_ jtwc_sh SH062001 -13.0000 86.0000 TD 25 -1 -13.1000 85.7000 2 25 999 2.00000 2.00000 -13.0000 86.0000 TC 25 6 239
2001018S12086 2001 2 SI MM CHARLY 2001-01-18 15:00:00 TS -13.1575 85.6291 main 1950 1950 P____P______P_ SH062001 -13.1500 85.8075 TD 25 -1 -13.1725 85.2724 2 25 999 -13.1500 85.8075 TC 25 6 247
2001018S12086 2001 2 SI MM CHARLY 2001-01-18 18:00:00 TS -13.2667 85.3333 25 999 reunion main 1983 1983 O____O______O_ jtwc_sh SH062001 -13.3000 85.6000 TD 25 -1 -13.2000 84.8000 2 25 999 2.00000 2.00000 -13.3000 85.6000 TC 25 6 250
2001018S12086 2001 2 SI MM CHARLY 2001-01-18 21:00:00 TS -13.3659 85.0300 main 2015 2015 P____P______P_ SH062001 -13.4425 85.4074 TD 27 -1 -13.2127 84.2750 2 27 998 -13.4425 85.4074 TC 27 6 247
2001018S12086 2001 2 SI MM CHARLY 2001-01-19 00:00:00 TS -13.5000 84.7667 30 998 reunion main 2039 2039 O____O______O_ jtwc_sh SH062001 -13.6000 85.2000 TD 30 -1 -13.3000 83.9000 2 30 998 2.50000 2.50000 -13.6000 85.2000 TC 30 5 230
2001018S12086 2001 2 SI MM CHARLY 2001-01-19 03:00:00 TS -13.7133 84.6016 main 2069 2069 P____P______P_ SH062001 -13.7850 84.9575 TD 30 -1 -13.5699 83.8898 2 30 998 -13.7850 84.9575 TC 30 6 212
2001018S12086 2001 2 SI MM CHARLY 2001-01-19 06:00:00 TS -13.9667 84.4667 30 998 reunion main 2099 2099 O____O______O_ jtwc_sh SH062001 -14.0000 84.7000 TD 30 -1 -13.9000 84.0000 2 30 998 2.50000 2.50000 -14.0000 84.7000 TC 30 6 210
2001018S12086 2001 2 SI MM CHARLY 2001-01-19 09:00:00 TS -14.2116 84.3033 main 2130 2130 P____P______P_ SH062001 -14.2424 84.4574 TD 32 -1 -14.1500 83.9949 2 32 996 -14.2424 84.4574 TC 32 6 216
2001018S12086 2001 2 SI MM CHARLY 2001-01-19 12:00:00 TS -14.4667 84.1000 35 994 reunion main 2168 2168 O____O______O_ jtwc_sh SH062001 -14.5000 84.2000 TS 35 0 -14.4000 83.9000 3 35 994 3.00000 3.00000 -14.5000 84.2000 TC 35 7 221
2001018S12086 2001 2 SI MM CHARLY 2001-01-19 15:00:00 TS -14.7358 83.8391 main 2207 2207 P____P______P_ SH062001 -14.7500 83.9149 TS 37 0 -14.7075 83.6876 3 37 992 -14.7500 83.9149 TC 37 8 226
2001018S12086 2001 2 SI MM CHARLY 2001-01-19 18:00:00 TS -15.0000 83.5333 40 990 reunion main 2254 2254 O____O______O_ jtwc_sh SH062001 -15.0000 83.6000 TS 40 0 -15.0000 83.4000 3 40 990 3.00000 3.00000 -15.0000 83.6000 TC 40 8 231
2001018S12086 2001 2 SI MM CHARLY 2001-01-19 21:00:00 TS -15.2258 83.2049 main 2293 2293 P____P______P_ SH062001 -15.2425 83.2574 TS 47 0 -15.1925 83.0998 3 45 987 -15.2425 83.2574 TC 47 8 234
2001018S12086 2001 2 SI MM CHARLY 2001-01-20 00:00:00 TS -15.4667 82.8667 50 985 reunion main 2339 2339 O____O______O_ jtwc_sh SH062001 -15.5000 82.9000 TS 55 0 -15.4000 82.8000 3 50 985 3.50000 3.50000 -15.5000 82.9000 TC 55 8 228
2001018S12086 2001 2 SI MM CHARLY 2001-01-20 03:00:00 TS -15.7833 82.5525 main 2385 2385 P____P______P_ SH062001 -15.7999 82.5500 TS 55 0 -15.7499 82.5575 3 52 982 -15.7999 82.5500 TC 55 9 224
2001018S12086 2001 2 SI MM CHARLY 2001-01-20 06:00:00 TS -16.1000 82.2333 55 980 reunion main 2439 2439 O____O______O_ jtwc_sh SH062001 -16.1000 82.2000 TS 55 0 -16.1000 82.3000 3 55 980 4.00000 4.00000 -16.1000 82.2000 TC 55 8 227
2001018S12086 2001 2 SI MM CHARLY 2001-01-20 09:00:00 TS -16.3557 81.9107 main 2485 2485 P____P______P_ SH062001 -16.3723 81.8724 TS 60 0 -16.3224 81.9873 3 56 977 -16.3723 81.8724 TC 60 8 235
2001018S12086 2001 2 SI MM CHARLY 2001-01-20 12:00:00 TS -16.5667 81.5333 58 975 reunion main 2522 2487 O____O______O_ jtwc_sh SH062001 -16.6000 81.5000 TY 65 1 -16.5000 81.6000 3 58 975 4.00000 4.00000 -16.6000 81.5000 TC 65 9 244
2001018S12086 2001 2 SI MM CHARLY 2001-01-20 15:00:00 TS -16.7507 81.0732 main 2485 2430 P____P______P_ SH062001 -16.7724 81.0374 TY 67 1 -16.7073 81.1450 3 59 974 -16.7724 81.0374 TC 67 10 251
2001018S12086 2001 2 SI MM CHARLY 2001-01-20 18:00:00 TS -16.9000 80.5333 60 973 reunion main 2420 2366 O____O______O_ jtwc_sh SH062001 -16.9000 80.5000 TY 70 1 -16.9000 80.6000 3 60 973 4.00000 4.00000 -16.9000 80.5000 TC 70 11 256
2001018S12086 2001 2 SI MM CHARLY 2001-01-20 21:00:00 TS -17.0267 79.9216 main 2355 2291 P____P______P_ SH062001 -17.0075 79.9074 TY 72 1 -17.0652 79.9500 3 60 973 -17.0075 79.9074 TC 72 12 259
2001018S12086 2001 2 SI MM CHARLY 2001-01-21 00:00:00 TS -17.1333 79.3000 60 973 reunion main 2291 2236 O____O______O_ jtwc_sh SH062001 -17.1000 79.3000 TY 75 1 -17.2000 79.3000 3 60 973 4.00000 4.00000 -17.1000 79.3000 TC 75 11 260
2001018S12086 2001 2 SI MM CHARLY 2001-01-21 03:00:00 TS -17.2331 78.7541 main 2236 2182 P____P______P_ SH062001 -17.1923 78.7349 TY 75 1 -17.3146 78.7924 3 60 973 -17.1923 78.7349 TC 75 10 259
2001018S12086 2001 2 SI MM CHARLY 2001-01-21 06:00:00 TS -17.3333 78.2333 60 973 reunion main 2172 2117 O____O______O_ jtwc_sh SH062001 -17.3000 78.2000 TY 75 1 -17.4000 78.3000 3 60 973 4.00000 4.00000 -17.3000 78.2000 TC 75 10 258
2001018S12086 2001 2 SI MM CHARLY 2001-01-21 09:00:00 TS -17.4423 77.7049 main 2117 2061 P____P______P_ SH062001 -17.4423 77.6999 TY 77 1 -17.4424 77.7148 3 65 969 -17.4423 77.6999 TC 77 10 257
2001018S12086 2001 2 SI MM CHARLY 2001-01-21 12:00:00 TS -17.5667 77.1667 70 965 reunion main 2061 1996 O____O______O_ jtwc_sh SH062001 -17.6000 77.2000 TY 80 1 -17.5000 77.1000 4 70 965 4.50000 4.50000 -17.6000 77.2000 TC 80 11 255
2001018S12086 2001 2 SI MM CHARLY 2001-01-21 15:00:00 TS -17.7166 76.5975 main 1996 1940 P____P______P_ SH062001 -17.7574 76.6575 TY 82 1 -17.6350 76.4776 4 72 962 -17.7574 76.6575 TC 82 11 254
2001018S12086 2001 2 SI MM CHARLY 2001-01-21 18:00:00 TS -17.8667 76.0333 75 960 reunion main 1930 1876 O____O______O_ jtwc_sh SH062001 -17.9000 76.1000 TY 85 2 -17.8000 75.9000 4 75 960 5.00000 5.00000 -17.9000 76.1000 TC 85 11 255
2001018S12086 2001 2 SI MM CHARLY 2001-01-21 21:00:00 TS -17.9857 75.5065 main 1876 1822 P____P______P_ SH062001 -17.9999 75.5423 TY 87 2 -17.9572 75.4349 4 77 957 -17.9999 75.5423 TC 87 10 257
2001018S12086 2001 2 SI MM CHARLY 2001-01-22 00:00:00 TS -18.1000 75.0000 80 955 reunion main 1822 1768 O____O______O_ jtwc_sh SH062001 -18.1000 75.0000 TY 90 2 -18.1000 75.0000 4 80 955 5.00000 5.00000 -18.1000 75.0000 TC 90 10 256
2001018S12086 2001 2 SI MM CHARLY 2001-01-22 03:00:00 TS -18.2156 74.5048 main 1768 1712 P____P______P_ SH062001 -18.2348 74.4999 TY 90 2 -18.1774 74.5146 4 82 951 -18.2348 74.4999 TC 90 10 254
2001018S12086 2001 2 SI MM CHARLY 2001-01-22 06:00:00 TS -18.3667 74.0000 85 948 reunion main 1712 1656 O____O______O_ jtwc_sh SH062001 -18.4000 74.0000 TY 90 2 -18.3000 74.0000 4 85 948 5.50000 5.50000 -18.4000 74.0000 TC 90 11 250
2001018S12086 2001 2 SI MM CHARLY 2001-01-22 09:00:00 TS -18.5826 73.4376 main 1646 1590 P____P______P_ SH062001 -18.5851 73.4350 TY 97 3 -18.5775 73.4428 4 92 939 -18.5851 73.4350 TC 97 11 246
2001018S12086 2001 2 SI MM CHARLY 2001-01-22 12:00:00 TS -18.8333 72.9000 100 930 reunion main 1590 1544 O____O______O_ jtwc_sh SH062001 -18.8000 72.9000 TY 105 3 -18.9000 72.9000 4 100 930 6.00000 6.00000 -18.8000 72.9000 TC 105 10 242
2001018S12086 2001 2 SI MM CHARLY 2001-01-22 15:00:00 TS -19.0680 72.4755 main 1544 1499 P____P______P_ SH062001 -19.0272 72.4847 TY 105 3 -19.1496 72.4570 4 100 930 -19.0272 72.4847 TC 105 9 238
2001018S12086 2001 2 SI MM CHARLY 2001-01-22 18:00:00 TS -19.3333 72.0667 100 930 reunion main 1499 1444 O____O______O_ jtwc_sh SH062001 -19.3000 72.1000 TY 105 3 -19.4000 72.0000 4 100 930 5.50000 6.00000 -19.3000 72.1000 TC 105 10 236
2001018S12086 2001 2 SI MM CHARLY 2001-01-22 21:00:00 TS -19.6466 71.5815 main 1444 1388 P____P______P_ SH062001 -19.6274 71.6648 TY 105 3 -19.6851 71.4149 4 100 930 -19.6274 71.6648 TC 105 12 235
2001018S12086 2001 2 SI MM CHARLY 2001-01-23 00:00:00 TS -20.0000 71.0667 100 930 reunion main 1388 1334 O____O______O_ jtwc_sh SH062001 -20.0000 71.2000 TY 105 3 -20.0000 70.8000 4 100 930 5.00000 6.00000 -20.0000 71.2000 TC 105 12 233
2001018S12086 2001 2 SI MM CHARLY 2001-01-23 03:00:00 TS -20.3731 70.5672 main 1334 1281 P____P______P_ SH062001 -20.3924 70.7148 TY 102 3 -20.3345 70.2645 4 95 935 -20.3923 70.7222 TC 102 12 232
2001018S12086 2001 2 SI MM CHARLY 2001-01-23 06:00:00 TS -20.7667 70.0333 90 940 reunion main 1271 1219 O____O______O_ jtwc_sh SH062001 -20.8000 70.2000 TY 100 3 -20.7000 69.7000 4 90 940 4.00000 5.50000 -20.8000 70.2000 TC 100 13 232
2001018S12086 2001 2 SI MM CHARLY 2001-01-23 09:00:00 TS -21.1891 69.4343 main 1209 1150 P____P______P_ SH062001 -21.2221 69.6799 TY 95 2 -21.1227 69.0005 4 85 947 -21.2224 69.6225 TC 92 14 235
2001018S12086 2001 2 SI MM CHARLY 2001-01-23 12:00:00 TS -21.5667 68.8000 80 955 reunion main 1151 1091 O____O______O_ jtwc_sh SH062001 -21.6000 69.1000 TY 90 2 -21.5000 68.3000 4 80 955 4.00000 5.00000 -21.6000 69.0000 TC 85 13 241
2001018S12086 2001 2 SI MM CHARLY 2001-01-23 15:00:00 TS -21.8396 68.1838 main 1091 1033 P____P______P_ SH062001 -21.8950 68.4224 TY 82 1 -21.7367 67.7568 4 72 962 -21.8871 68.3722 TC 80 13 248
2001018S12086 2001 2 SI MM CHARLY 2001-01-23 18:00:00 TS -22.0333 67.5333 65 970 reunion main 1023 966 O____O______O_ jtwc_sh SH062001 -22.1000 67.7000 TY 75 1 -21.9000 67.2000 4 65 970 3.50000 4.50000 -22.1000 67.7000 TC 75 13 255
2001018S12086 2001 2 SI MM CHARLY 2001-01-23 21:00:00 TS -22.1789 66.8221 main 956 888 P____P______P_ SH062001 -22.2144 67.0219 TY 67 1 -22.0501 66.4722 4 62 972 -22.2722 66.9723 TC 70 14 259
2001018S12086 2001 2 SI MM CHARLY 2001-01-24 00:00:00 TS -22.3000 66.0667 60 975 reunion main 888 811 O____O______O_ jtwc_sh SH062001 -22.3000 66.3000 TS 60 0 -22.2000 65.7000 3 60 975 3.00000 4.00000 -22.4000 66.2000 TC 65 14 259
2001018S12086 2001 2 SI MM CHARLY 2001-01-24 03:00:00 TS -22.4448 65.2832 main 811 739 P____P______P_ SH062001 -22.4350 65.4649 TS 57 0 -22.3998 64.9776 3 55 979 -22.4997 65.4071 TC 60 15 258
2001018S12086 2001 2 SI MM CHARLY 2001-01-24 06:00:00 TS -22.6000 64.5000 50 983 reunion main 739 676 O____O______O_ jtwc_sh SH062001 -22.6000 64.6000 TS 55 0 -22.6000 64.3000 3 50 983 3.00000 3.50000 -22.6000 64.6000 TC 55 14 258
2001018S12086 2001 2 SI MM CHARLY 2001-01-24 09:00:00 TS -22.7536 63.7688 main 680 618 P____P______P_ SH062001 -22.7921 63.7849 TS 52 0 -22.7415 63.7293 3 47 985 -22.7272 63.7922 TC 52 14 256
2001018S12086 2001 2 SI MM CHARLY 2001-01-24 12:00:00 TS -22.9333 63.0333 45 987 reunion main 609 556 O____O______O_ jtwc_sh SH062001 -23.0000 63.0000 TS 50 0 -22.9000 63.1000 3 45 987 2.50000 3.00000 -22.9000 63.0000 TC 50 15 254
2001018S12086 2001 2 SI MM CHARLY 2001-01-24 15:00:00 TS -23.1543 62.2184 main 553 508 P____P______P_ SH062001 -23.1997 62.2273 TS 47 0 -23.1283 62.2077 3 42 988 -23.1348 62.2201 TC 47 15 252
2001018S12086 2001 2 SI MM CHARLY 2001-01-24 18:00:00 TS -23.4000 61.4333 40 990 reunion main 500 471 O____O______O_ jtwc_sh SH062001 -23.4000 61.5000 TS 45 0 -23.4000 61.3000 3 40 990 2.00000 3.00000 -23.4000 61.5000 TC 45 14 250
2001018S12086 2001 2 SI MM CHARLY 2001-01-24 21:00:00 TS -23.6395 60.7622 main 471 455 P____P______P_ SH062001 -23.5772 60.8195 TS 40 0 -23.6994 60.5899 3 39 991 -23.6420 60.8771 TC 47 13 247
2001018S12086 2001 2 SI MM CHARLY 2001-01-25 00:00:00 TS -23.9000 60.1667 38 993 reunion main 458 451 O____O______O_ jtwc_sh SH062001 -23.8000 60.2000 TS 35 0 -24.0000 60.0000 3 38 993 2.00000 3.00000 -23.9000 60.3000 TC 50 12 242
2001018S12086 2001 2 SI MM CHARLY 2001-01-25 03:00:00 TS -24.2048 59.5892 main 457 453 P____P______P_ SH062001 -24.1496 59.6352 TS 35 0 -24.2572 59.4622 3 36 994 -24.2076 59.6702 TC 42 12 239
2001018S12086 2001 2 SI MM CHARLY 2001-01-25 06:00:00 TS -24.5000 59.0667 35 995 reunion main 469 466 O____O______O_ jtwc_sh SH062001 -24.5000 59.1000 TS 35 0 -24.5000 59.0000 3 35 995 2.00000 2.50000 -24.5000 59.1000 TC 35 11 240
2001018S12086 2001 2 SI MM CHARLY 2001-01-25 09:00:00 TS -24.7416 58.5815 main 475 471 P____P______P_ SH062001 -24.7302 58.5048 TS 32 -1 -24.7724 58.5700 3 32 996 -24.7221 58.6696 TC 35 9 242
2001018S12086 2001 2 SI MM CHARLY 2001-01-25 12:00:00 TS -24.9333 58.1667 30 997 reunion main 471 465 O____O______O_ jtwc_sh SH062001 -24.9000 58.0000 TD 30 -1 -25.0000 58.2000 2 30 997 2.00000 2.50000 -24.9000 58.3000 TC 35 8 243
2001018S12086 2001 2 SI MM CHARLY 2001-01-25 15:00:00 TS -25.0940 57.8274 main 470 465 P____P______P_ SH062001 -25.0721 57.7123 TD 30 -1 -25.1373 57.8848 2 30 997 -25.0725 57.8850 TC 32 6 245
2001018S12086 2001 2 SI MM CHARLY 2001-01-25 18:00:00 TS -25.2000 57.5400 30 998 reunion main 466 455 O____O______O_ jtwc_sh SH062001 -25.2000 57.5000 TD 30 -1 -25.2000 57.6000 2 30 998 2.00000 2.50000 -25.2000 57.5000 TC 30 6 256
2001018S12086 2001 2 SI MM CHARLY 2001-01-25 21:00:00 TS -25.2339 57.2212 main 455 448 P____P______P_ SH062001 -25.2678 57.2251 TD 27 -1 -25.2001 57.2399 2 30 998 -25.2675 57.1800 TC 27 5 266
2001018S12086 2001 2 SI MM CHARLY 2001-01-26 00:00:00 TS -25.2333 56.9667 30 998 reunion main 448 448 O____O______O_ jtwc_sh SH062001 -25.3000 56.9000 TD 25 -1 -25.2000 57.0000 2 30 998 2.00000 2.50000 -25.3000 56.9000 TC 25 2 252
2001018S12086 2001 2 SI MM CHARLY 2001-01-26 03:00:00 TS -25.2850 57.0474 main 458 458 _____P________ SH062001 TD -1 -25.2850 57.0474 2 27 999 TC 3 128
2001018S12086 2001 2 SI MM CHARLY 2001-01-26 06:00:00 TS -25.4000 57.2000 25 1000 reunion main 475 475 _____O________ -25.4000 57.2000 2 25 1000 1.50000 2.00000 3 132
2001018S12086 2001 2 SI MM CHARLY 2001-01-26 09:00:00 TS -25.4775 57.2799 main 489 489 _____P________ -25.4775 57.2799 2 25 1000 2 155
2001018S12086 2001 2 SI MM CHARLY 2001-01-26 12:00:00 TS -25.6000 57.3000 25 1000 reunion main 500 500 _____O________ -25.6000 57.3000 2 25 1000 2.00000 2.00000 4 187
2001018S12086 2001 2 SI MM CHARLY 2001-01-26 15:00:00 TS -25.8350 57.2301 main 518 518 _____P________ -25.8350 57.2301 2 25 1000 5 200
2001018S12086 2001 2 SI MM CHARLY 2001-01-26 18:00:00 TS -26.1000 57.1000 25 1000 reunion main 546 546 _____O________ -26.1000 57.1000 2 25 1000 2.00000 2.00000 5 206
2001018S12086 2001 2 SI MM CHARLY 2001-01-26 21:00:00 TS -26.3149 56.9724 main 565 563 _____P________ -26.3149 56.9724 2 25 1000 5 214
2001018S12086 2001 2 SI MM CHARLY 2001-01-27 00:00:00 TS -26.5000 56.8000 25 1000 reunion main 582 582 _____O________ -26.5000 56.8000 2 25 1000 2.00000 2.00000 5 224
2001018S12086 2001 2 SI MM CHARLY 2001-01-27 03:00:00 TS -26.6800 56.5726 main 600 599 _____P________ -26.6800 56.5726 2 25 1000 5 236
2001018S12086 2001 2 SI MM CHARLY 2001-01-27 06:00:00 TS -26.8000 56.3000 25 1000 reunion main 607 604 _____O________ -26.8000 56.3000 2 25 1000 2.00000 2.00000 5 252
2001018S12086 2001 2 SI MM CHARLY 2001-01-27 09:00:00 TS -26.8374 56.0150 main 604 603 _____P________ -26.8374 56.0150 2 25 1000 5 270
2001018S12086 2001 2 SI MM CHARLY 2001-01-27 12:00:00 TS -26.8000 55.7000 25 1000 reunion main 603 592 _____O________ -26.8000 55.7000 2 25 1000 2.00000 2.00000 6 282
2001018S12086 2001 2 SI MM CHARLY 2001-01-27 15:00:00 TS -26.7076 55.3423 main 593 583 _____P________ -26.7076 55.3423 2 25 1001 7 288
2001018S12086 2001 2 SI MM CHARLY 2001-01-27 18:00:00 TS -26.6000 55.0000 25 1002 reunion main 584 575 _____O________ -26.6000 55.0000 2 25 1002 2.00000 2.00000 6 288
2001018S12086 2001 2 SI MM CHARLY 2001-01-27 21:00:00 TS -26.5274 54.7200 main 577 577 _____P________ -26.5274 54.7200 2 25 1002 5 283
2001018S12086 2001 2 SI MM CHARLY 2001-01-28 00:00:00 TS -26.5000 54.5000 25 1002 reunion main 580 580 _____O________ -26.5000 54.5000 2 25 1002 2.00000 2.00000 4 274
2001018S12086 2001 2 SI MM CHARLY 2001-01-28 03:00:00 TS -26.5050 54.3200 main 585 585 _____P________ -26.5050 54.3200 2 25 1002 3 249
2001018S12086 2001 2 SI MM CHARLY 2001-01-28 06:00:00 TS -26.6000 54.2000 25 1002 reunion main 598 598 _____O________ -26.6000 54.2000 2 25 1002 1.50000 2.00000 4 207
2001018S12086 2001 2 SI MM CHARLY 2001-01-28 09:00:00 TS -26.8275 54.1350 main 622 622 _____P________ -26.8275 54.1350 2 25 1002 5 190
2001018S12086 2001 2 SI MM CHARLY 2001-01-28 12:00:00 TS -27.1000 54.1000 25 1002 reunion main 654 654 _____O________ -27.1000 54.1000 2 25 1002 1.50000 2.00000 5 186
2001018S12086 2001 2 SI MM CHARLY 2001-01-28 15:00:00 TS -27.3450 54.0650 main 676 676 _____P________ -27.3450 54.0650 2 25 1002 4 192
2001018S12086 2001 2 SI MM CHARLY 2001-01-28 18:00:00 TS -27.5000 54.0000 25 1002 reunion main 700 700 _____O________ -27.5000 54.0000 2 25 1002 2.00000 2.00000 3 233
2001018S12086 2001 2 SI MM CHARLY 2001-01-28 21:00:00 TS -27.5026 53.8273 main 705 697 _____P________ -27.5026 53.8273 2 25 1002 3 291
2001018S12086 2001 2 SI MM CHARLY 2001-01-29 00:00:00 TS -27.4000 53.7000 25 1002 reunion main 697 676 _____O________ -27.4000 53.7000 2 25 1002 2.00000 2.00000 3 338
2001018S12086 2001 2 SI MM CHARLY 2001-01-29 03:00:00 TS -27.2272 53.7028 main 676 659 _____P________ -27.2272 53.7028 2 25 1002 3 30
2001018S12086 2001 2 SI MM CHARLY 2001-01-29 06:00:00 TS -27.1000 53.9000 25 1002 reunion main 659 650 _____O________ -27.1000 53.9000 2 25 1002 1.50000 2.00000 5 80
2001018S12086 2001 2 SI MM CHARLY 2001-01-29 09:00:00 TS -27.1324 54.3104 main 650 648 _____P________ -27.1324 54.3104 2 25 1002 9 103
2001018S12086 2001 2 SI MM CHARLY 2001-01-29 12:00:00 TS -27.3000 54.9000 25 1002 reunion main 663 662 _____O________ -27.3000 54.9000 2 25 1002 1.50000 2.00000 12 110
2001018S12086 2001 2 SI MM CHARLY 2001-01-29 15:00:00 TS -27.5554 55.5923 main 692 692 _____P________ -27.5554 55.5923 2 25 1003 14 116
2001018S12086 2001 2 SI MM CHARLY 2001-01-29 18:00:00 ET -27.9000 56.3000 25 1004 reunion main 729 729 _____O________ -27.9000 56.3000 5 25 1004 9.90000 13 122
2001018S12086 2001 2 SI MM CHARLY 2001-01-29 21:00:00 ET -28.2544 56.8660 main 782 782 _____P________ -28.2544 56.8660 5 25 1004 13 130
2001018S12086 2001 2 SI MM CHARLY 2001-01-30 00:00:00 ET -28.7000 57.4000 25 1004 reunion main 835 835 _____O________ -28.7000 57.4000 5 25 1004 9.90000 14 134
2001018S12086 2001 2 SI MM CHARLY 2001-01-30 03:00:00 ET -29.2176 58.0155 main 904 904 _____P________ -29.2176 58.0155 5 25 1004 16 139
2001018S12086 2001 2 SI MM CHARLY 2001-01-30 06:00:00 ET -29.9000 58.6000 25 1004 reunion main 995 995 _____O________ -29.9000 58.6000 5 25 1004 9.90000 19 150
2001018S12086 2001 2 SI MM CHARLY 2001-01-30 09:00:00 ET -30.9025 59.1233 main 1116 1116 _____P________ -30.9025 59.1233 5 25 1004 21 158
2001018S12086 2001 2 SI MM CHARLY 2001-01-30 12:00:00 ET -31.8000 59.5000 25 1004 reunion main 1224 1224 _____O________ -31.8000 59.5000 5 25 1004 9.90000 13 160
2001018S12086 2001 2 SI MM CHARLY 2001-01-30 15:00:00 ET -32.1547 59.6616 main 1272 1272 _____P________ -32.1547 59.6616 5 25 1004 5 161
2001018S12086 2001 2 SI MM CHARLY 2001-01-30 18:00:00 ET -32.3000 59.7000 25 1004 reunion main 1282 1282 _____O________ -32.3000 59.7000 5 25 1004 9.90000 4 170
2001018S12086 2001 2 SI MM CHARLY 2001-01-30 21:00:00 ET -32.5500 59.7427 main 1304 1304 _____P________ -32.5500 59.7427 5 25 1004 5 170
2001018S12086 2001 2 SI MM CHARLY 2001-01-31 00:00:00 ET -32.8000 59.8000 25 1004 reunion main 1338 1338 _____O________ -32.8000 59.8000 5 25 1004 9.90000 5 164
2001018S12086 2001 2 SI MM CHARLY 2001-01-31 03:00:00 ET -33.0349 59.9128 main 1362 1362 _____P________ -33.0349 59.9128 5 25 1003 6 153
2001018S12086 2001 2 SI MM CHARLY 2001-01-31 06:00:00 ET -33.3000 60.1000 25 1002 reunion main 1400 1400 _____O________ -33.3000 60.1000 5 25 1002 9.90000 7 145
2001018S12086 2001 2 SI MM CHARLY 2001-01-31 09:00:00 ET -33.6202 60.3997 main 1441 1441 _____P________ -33.6202 60.3997 5 25 1002 9 145
2001018S12086 2001 2 SI MM CHARLY 2001-01-31 12:00:00 ET -34.0000 60.7000 25 1002 reunion main 1492 1492 _____O________ -34.0000 60.7000 5 25 1002 9.90000 9 154
2001018S12086 2001 2 SI MM CHARLY 2001-01-31 15:00:00 ET -34.4199 60.8803 main 1541 1541 _____P________ -34.4199 60.8803 5 27 1001 9 165
2001018S12086 2001 2 SI MM CHARLY 2001-01-31 18:00:00 ET -34.9000 61.0000 30 1000 reunion main 1596 1596 _____O________ -34.9000 61.0000 5 30 1000 9.90000 11 170
2001018S12086 2001 2 SI MM CHARLY 2001-01-31 21:00:00 ET -35.4574 61.1003 main 1610 1554 _____P________ -35.4574 61.1003 5 30 1000 11 172
2001018S12086 2001 2 SI MM CHARLY 2001-02-01 00:00:00 ET -36.0000 61.2000 30 1000 reunion main 1554 1510 _____O________ -36.0000 61.2000 5 30 1000 9.90000 10 169
2001018S12086 2001 2 SI MM CHARLY 2001-02-01 03:00:00 ET -36.4351 61.3371 main 1510 1462 _____P________ -36.4351 61.3371 5 32 999 8 163
2001018S12086 2001 2 SI MM CHARLY 2001-02-01 06:00:00 ET -36.8000 61.5000 35 998 reunion main 1462 _____O________ -36.8000 61.5000 5 35 998 9.90000 8 160

About IBTrACS Database

This database is a web-friendly format of International Best Track Archive for Climate Stewardship (IBTrACS), a global best track data archive curated by NOAA dating back to 1842.

Updated: 2021-12-01